sensor_id;sensor_type;location;lat;lon;timestamp;pressure;altitude;pressure_sealevel;temperature;humidity
70781;BME280;59514;48.810;2.134;2023-05-08T00:02:21;100854.06;;;10.81;100.00
70781;BME280;59514;48.810;2.134;2023-05-08T00:04:46;100860.88;;;10.77;100.00
70781;BME280;59514;48.810;2.134;2023-05-08T00:07:11;100857.38;;;10.77;100.00
70781;BME280;59514;48.810;2.134;2023-05-08T00:09:37;100866.06;;;10.72;100.00
70781;BME280;59514;48.810;2.134;2023-05-08T00:12:02;100863.16;;;10.74;100.00
70781;BME280;59514;48.810;2.134;2023-05-08T00:14:28;100855.72;;;10.76;100.00
70781;BME280;59514;48.810;2.134;2023-05-08T00:16:53;100859.88;;;10.72;100.00
70781;BME280;59514;48.810;2.134;2023-05-08T00:19:18;100856.97;;;10.73;100.00
70781;BME280;59514;48.810;2.134;2023-05-08T00:21:43;100857.00;;;10.67;100.00
70781;BME280;59514;48.810;2.134;2023-05-08T00:24:09;100845.41;;;10.73;100.00
70781;BME280;59514;48.810;2.134;2023-05-08T00:26:34;100851.16;;;10.76;100.00
70781;BME280;59514;48.810;2.134;2023-05-08T00:28:59;100851.16;;;10.76;100.00
70781;BME280;59514;48.810;2.134;2023-05-08T00:31:25;100856.75;;;10.75;100.00
70781;BME280;59514;48.810;2.134;2023-05-08T00:33:50;100851.97;;;10.83;100.00
70781;BME280;59514;48.810;2.134;2023-05-08T00:36:15;100851.50;;;10.93;100.00
70781;BME280;59514;48.810;2.134;2023-05-08T00:38:41;100852.38;;;10.87;100.00
70781;BME280;59514;48.810;2.134;2023-05-08T00:41:06;100844.97;;;10.76;100.00
70781;BME280;59514;48.810;2.134;2023-05-08T00:43:32;100848.31;;;10.71;100.00
70781;BME280;59514;48.810;2.134;2023-05-08T00:45:59;100851.41;;;10.68;100.00
70781;BME280;59514;48.810;2.134;2023-05-08T00:48:27;100849.16;;;10.65;100.00
70781;BME280;59514;48.810;2.134;2023-05-08T00:50:55;100848.97;;;10.60;100.00
70781;BME280;59514;48.810;2.134;2023-05-08T00:53:22;100846.34;;;10.54;100.00
70781;BME280;59514;48.810;2.134;2023-05-08T00:55:48;100847.56;;;10.51;100.00
70781;BME280;59514;48.810;2.134;2023-05-08T00:58:15;100844.28;;;10.49;100.00
70781;BME280;59514;48.810;2.134;2023-05-08T01:00:41;100841.81;;;10.41;100.00
70781;BME280;59514;48.810;2.134;2023-05-08T01:03:08;100834.38;;;10.43;100.00
70781;BME280;59514;48.810;2.134;2023-05-08T01:05:34;100837.09;;;10.36;100.00
70781;BME280;59514;48.810;2.134;2023-05-08T01:08:00;100843.31;;;10.30;100.00
70781;BME280;59514;48.810;2.134;2023-05-08T01:16:14;100844.56;;;10.28;100.00
70781;BME280;59514;48.810;2.134;2023-05-08T01:21:33;100842.28;;;10.25;100.00
70781;BME280;59514;48.810;2.134;2023-05-08T01:24:18;100845.59;;;10.27;100.00
70781;BME280;59514;48.810;2.134;2023-05-08T01:27:27;100851.78;;;10.27;100.00
70781;BME280;59514;48.810;2.134;2023-05-08T01:30:11;100849.28;;;10.39;100.00
70781;BME280;59514;48.810;2.134;2023-05-08T01:32:42;100847.66;;;10.25;100.00
70781;BME280;59514;48.810;2.134;2023-05-08T01:37:49;100846.03;;;10.24;100.00
70781;BME280;59514;48.810;2.134;2023-05-08T01:41:21;100851.41;;;10.24;100.00
70781;BME280;59514;48.810;2.134;2023-05-08T01:43:31;100851.56;;;10.29;100.00
70781;BME280;59514;48.810;2.134;2023-05-08T01:45:58;100853.00;;;10.31;100.00
70781;BME280;59514;48.810;2.134;2023-05-08T01:48:30;100854.03;;;10.37;100.00
70781;BME280;59514;48.810;2.134;2023-05-08T01:51:06;100851.34;;;10.37;100.00
70781;BME280;59514;48.810;2.134;2023-05-08T01:53:41;100855.66;;;10.38;100.00
70781;BME280;59514;48.810;2.134;2023-05-08T01:56:09;100859.19;;;10.32;100.00
70781;BME280;59514;48.810;2.134;2023-05-08T01:58:36;100860.25;;;10.31;100.00
70781;BME280;59514;48.810;2.134;2023-05-08T02:01:02;100854.25;;;10.29;100.00
70781;BME280;59514;48.810;2.134;2023-05-08T02:03:30;100853.00;;;10.31;100.00
70781;BME280;59514;48.810;2.134;2023-05-08T02:05:58;100856.50;;;10.32;100.00
70781;BME280;59514;48.810;2.134;2023-05-08T02:08:25;100856.94;;;10.29;100.00
70781;BME280;59514;48.810;2.134;2023-05-08T02:10:51;100867.44;;;10.30;100.00
70781;BME280;59514;48.810;2.134;2023-05-08T02:13:19;100871.59;;;10.33;100.00
70781;BME280;59514;48.810;2.134;2023-05-08T02:15:47;100867.44;;;10.37;100.00
70781;BME280;59514;48.810;2.134;2023-05-08T02:18:14;100863.31;;;10.41;100.00
70781;BME280;59514;48.810;2.134;2023-05-08T02:20:43;100864.16;;;10.35;100.00
70781;BME280;59514;48.810;2.134;2023-05-08T02:23:09;100857.13;;;10.34;100.00
70781;BME280;59514;48.810;2.134;2023-05-08T02:25:36;100863.31;;;10.41;100.00
70781;BME280;59514;48.810;2.134;2023-05-08T02:28:05;100864.78;;;10.30;100.00
70781;BME280;59514;48.810;2.134;2023-05-08T02:30:31;100867.06;;;10.33;100.00
70781;BME280;59514;48.810;2.134;2023-05-08T02:32:58;100877.97;;;10.38;100.00
70781;BME280;59514;48.810;2.134;2023-05-08T02:35:26;100876.50;;;10.36;100.00
70781;BME280;59514;48.810;2.134;2023-05-08T02:37:54;100866.41;;;10.38;100.00
70781;BME280;59514;48.810;2.134;2023-05-08T02:40:21;100872.81;;;10.37;100.00
70781;BME280;59514;48.810;2.134;2023-05-08T02:42:49;100863.31;;;10.41;100.00
70781;BME280;59514;48.810;2.134;2023-05-08T02:45:14;100870.50;;;10.47;100.00
70781;BME280;59514;48.810;2.134;2023-05-08T02:48:08;100861.22;;;10.50;100.00
70781;BME280;59514;48.810;2.134;2023-05-08T02:50:44;100860.38;;;10.49;100.00
70781;BME280;59514;48.810;2.134;2023-05-08T02:53:19;100853.78;;;10.52;100.00
70781;BME280;59514;48.810;2.134;2023-05-08T02:55:52;100864.09;;;10.48;100.00
70781;BME280;59514;48.810;2.134;2023-05-08T02:58:38;100858.09;;;10.53;100.00
70781;BME280;59514;48.810;2.134;2023-05-08T03:01:15;100860.38;;;10.56;100.00
70781;BME280;59514;48.810;2.134;2023-05-08T03:03:45;100849.66;;;10.49;100.00
70781;BME280;59514;48.810;2.134;2023-05-08T03:06:17;100856.03;;;10.48;100.00
70781;BME280;59514;48.810;2.134;2023-05-08T03:08:43;100849.63;;;10.56;100.00
70781;BME280;59514;48.810;2.134;2023-05-08T03:11:15;100844.28;;;10.43;100.00
70781;BME280;59514;48.810;2.134;2023-05-08T03:13:43;100852.97;;;10.45;100.00
70781;BME280;59514;48.810;2.134;2023-05-08T03:16:16;100852.56;;;10.41;100.00
70781;BME280;59514;48.810;2.134;2023-05-08T03:18:49;100855.47;;;10.39;100.00
70781;BME280;59514;48.810;2.134;2023-05-08T03:21:18;100847.78;;;10.50;100.00
70781;BME280;59514;48.810;2.134;2023-05-08T03:23:46;100844.88;;;10.51;100.00
70781;BME280;59514;48.810;2.134;2023-05-08T03:26:16;100847.13;;;10.54;100.00
70781;BME280;59514;48.810;2.134;2023-05-08T03:28:44;100845.91;;;10.50;100.00
70781;BME280;59514;48.810;2.134;2023-05-08T03:31:11;100847.56;;;10.51;100.00
70781;BME280;59514;48.810;2.134;2023-05-08T03:33:38;100847.78;;;10.50;100.00
70781;BME280;59514;48.810;2.134;2023-05-08T03:36:06;100848.41;;;10.52;100.00
70781;BME280;59514;48.810;2.134;2023-05-08T03:38:33;100852.09;;;10.57;100.00
70781;BME280;59514;48.810;2.134;2023-05-08T03:40:59;100852.09;;;10.57;100.00
70781;BME280;59514;48.810;2.134;2023-05-08T03:43:24;100850.03;;;10.59;100.00
70781;BME280;59514;48.810;2.134;2023-05-08T03:45:50;100843.44;;;10.55;100.00
70781;BME280;59514;48.810;2.134;2023-05-08T03:48:17;100847.75;;;10.56;100.00
70781;BME280;59514;48.810;2.134;2023-05-08T03:50:43;100842.19;;;10.58;100.00
70781;BME280;59514;48.810;2.134;2023-05-08T03:53:09;100843.44;;;10.55;100.00
70781;BME280;59514;48.810;2.134;2023-05-08T03:55:34;100845.28;;;10.55;100.00
70781;BME280;59514;48.810;2.134;2023-05-08T04:01:07;100838.47;;;10.52;100.00
70781;BME280;59514;48.810;2.134;2023-05-08T04:06:31;100832.25;;;10.58;100.00
70781;BME280;59514;48.810;2.134;2023-05-08T04:09:06;100832.44;;;10.63;100.00
70781;BME280;59514;48.810;2.134;2023-05-08T04:11:50;100823.94;;;10.66;100.00
70781;BME280;59514;48.810;2.134;2023-05-08T04:14:19;100831.63;;;10.63;100.00
70781;BME280;59514;48.810;2.134;2023-05-08T04:16:50;100833.28;;;10.57;100.00
70781;BME280;59514;48.810;2.134;2023-05-08T04:19:27;100825.63;;;10.61;100.00
70781;BME280;59514;48.810;2.134;2023-05-08T04:21:57;100830.59;;;10.64;100.00
70781;BME280;59514;48.810;2.134;2023-05-08T04:24:24;100829.94;;;10.68;100.00
70781;BME280;59514;48.810;2.134;2023-05-08T04:26:51;100822.56;;;10.57;100.00
70781;BME280;59514;48.810;2.134;2023-05-08T04:29:17;100832.84;;;10.60;100.00
70781;BME280;59514;48.810;2.134;2023-05-08T04:31:43;100828.53;;;10.59;100.00
70781;BME280;59514;48.810;2.134;2023-05-08T04:34:08;100830.38;;;10.65;100.00
70781;BME280;59514;48.810;2.134;2023-05-08T04:36:34;100831.84;;;10.61;100.00
70781;BME280;59514;48.810;2.134;2023-05-08T04:38:59;100834.69;;;10.66;100.00
70781;BME280;59514;48.810;2.134;2023-05-08T04:41:25;100828.47;;;10.72;100.00
70781;BME280;59514;48.810;2.134;2023-05-08T04:43:50;100834.03;;;10.77;100.00
70781;BME280;59514;48.810;2.134;2023-05-08T04:46:16;100835.06;;;10.76;100.00
70781;BME280;59514;48.810;2.134;2023-05-08T04:48:41;100833.81;;;10.79;100.00
70781;BME280;59514;48.810;2.134;2023-05-08T04:51:06;100830.53;;;10.70;100.00
70781;BME280;59514;48.810;2.134;2023-05-08T04:53:32;100841.66;;;10.80;100.00
70781;BME280;59514;48.810;2.134;2023-05-08T04:55:57;100839.03;;;10.67;100.00
70781;BME280;59514;48.810;2.134;2023-05-08T04:58:23;100843.78;;;10.65;100.00
70781;BME280;59514;48.810;2.134;2023-05-08T05:00:48;100845.44;;;10.66;100.00
70781;BME280;59514;48.810;2.134;2023-05-08T05:03:14;100843.16;;;10.70;100.00
70781;BME280;59514;48.810;2.134;2023-05-08T05:05:39;100849.53;;;10.75;100.00
70781;BME280;59514;48.810;2.134;2023-05-08T05:08:04;100843.47;;;10.86;100.00
70781;BME280;59514;48.810;2.134;2023-05-08T05:10:30;100849.84;;;10.92;100.00
70781;BME280;59514;48.810;2.134;2023-05-08T05:12:55;100857.25;;;10.96;100.00
70781;BME280;59514;48.810;2.134;2023-05-08T05:15:20;100865.09;;;10.98;100.00
70781;BME280;59514;48.810;2.134;2023-05-08T05:17:46;100862.16;;;11.06;100.00
70781;BME280;59514;48.810;2.134;2023-05-08T05:20:12;100863.00;;;11.06;100.00
70781;BME280;59514;48.810;2.134;2023-05-08T05:22:37;100871.25;;;11.11;100.00
70781;BME280;59514;48.810;2.134;2023-05-08T05:25:03;100879.03;;;11.19;100.00
70781;BME280;59514;48.810;2.134;2023-05-08T05:27:28;100873.47;;;11.14;100.00
70781;BME280;59514;48.810;2.134;2023-05-08T05:29:56;100880.53;;;11.15;100.00
70781;BME280;59514;48.810;2.134;2023-05-08T05:32:21;100879.09;;;11.13;100.00
70781;BME280;59514;48.810;2.134;2023-05-08T05:34:47;100876.25;;;11.01;100.00
70781;BME280;59514;48.810;2.134;2023-05-08T05:37:12;100875.94;;;10.78;100.00
70781;BME280;59514;48.810;2.134;2023-05-08T05:39:37;100877.75;;;10.91;100.00
70781;BME280;59514;48.810;2.134;2023-05-08T05:42:02;100878.38;;;10.86;100.00
70781;BME280;59514;48.810;2.134;2023-05-08T05:44:28;100881.94;;;10.80;100.00
70781;BME280;59514;48.810;2.134;2023-05-08T05:46:53;100884.69;;;10.67;100.00
70781;BME280;59514;48.810;2.134;2023-05-08T05:49:18;100900.81;;;10.67;100.00
70781;BME280;59514;48.810;2.134;2023-05-08T05:51:44;100901.22;;;10.64;100.00
70781;BME280;59514;48.810;2.134;2023-05-08T05:54:09;100901.44;;;10.63;100.00
70781;BME280;59514;48.810;2.134;2023-05-08T05:56:34;100899.56;;;10.63;100.00
70781;BME280;59514;48.810;2.134;2023-05-08T05:58:59;100905.78;;;10.64;100.00
70781;BME280;59514;48.810;2.134;2023-05-08T06:01:25;100911.78;;;10.59;100.00
70781;BME280;59514;48.810;2.134;2023-05-08T06:03:53;100909.09;;;10.59;100.00
70781;BME280;59514;48.810;2.134;2023-05-08T06:06:18;100912.78;;;10.58;100.00
70781;BME280;59514;48.810;2.134;2023-05-08T06:08:43;100918.59;;;10.62;100.00
70781;BME280;59514;48.810;2.134;2023-05-08T06:11:08;100922.69;;;10.71;100.00
70781;BME280;59514;48.810;2.134;2023-05-08T06:13:34;100919.38;;;10.69;100.00
70781;BME280;59514;48.810;2.134;2023-05-08T06:15:59;100909.03;;;10.72;100.00
70781;BME280;59514;48.810;2.134;2023-05-08T06:18:25;100915.25;;;10.66;100.00
70781;BME280;59514;48.810;2.134;2023-05-08T06:20:56;100918.13;;;10.71;100.00
70781;BME280;59514;48.810;2.134;2023-05-08T06:23:21;100918.47;;;10.88;100.00
70781;BME280;59514;48.810;2.134;2023-05-08T06:25:47;100921.81;;;10.83;100.00
70781;BME280;59514;48.810;2.134;2023-05-08T06:28:13;100921.19;;;10.81;100.00
70781;BME280;59514;48.810;2.134;2023-05-08T06:30:38;100921.00;;;10.76;100.00
70781;BME280;59514;48.810;2.134;2023-05-08T06:33:03;100925.09;;;10.85;100.00
70781;BME280;59514;48.810;2.134;2023-05-08T06:35:29;100928.81;;;10.91;100.00
70781;BME280;59514;48.810;2.134;2023-05-08T06:37:54;100929.44;;;10.86;100.00
70781;BME280;59514;48.810;2.134;2023-05-08T06:40:19;100925.91;;;10.86;100.00
70781;BME280;59514;48.810;2.134;2023-05-08T06:42:45;100933.78;;;10.87;100.00
70781;BME280;59514;48.810;2.134;2023-05-08T06:45:11;100921.13;;;10.94;100.00
70781;BME280;59514;48.810;2.134;2023-05-08T06:47:36;100934.16;;;10.91;100.00
70781;BME280;59514;48.810;2.134;2023-05-08T06:50:02;100932.94;;;10.87;100.00
70781;BME280;59514;48.810;2.134;2023-05-08T06:52:27;100931.66;;;10.96;100.00
70781;BME280;59514;48.810;2.134;2023-05-08T06:54:53;100934.94;;;10.98;100.00
70781;BME280;59514;48.810;2.134;2023-05-08T06:57:18;100930.03;;;10.88;100.00
70781;BME280;59514;48.810;2.134;2023-05-08T06:59:43;100936.66;;;10.86;100.00
70781;BME280;59514;48.810;2.134;2023-05-08T07:02:09;100936.84;;;10.97;100.00
70781;BME280;59514;48.810;2.134;2023-05-08T07:04:35;100942.38;;;11.02;100.00
70781;BME280;59514;48.810;2.134;2023-05-08T07:07:01;100933.69;;;11.07;100.00
70781;BME280;59514;48.810;2.134;2023-05-08T07:09:26;100935.47;;;11.19;100.00
70781;BME280;59514;48.810;2.134;2023-05-08T07:11:51;100938.25;;;11.38;100.00
70781;BME280;59514;48.810;2.134;2023-05-08T07:14:17;100934.78;;;11.31;100.00
70781;BME280;59514;48.810;2.134;2023-05-08T07:16:42;100944.66;;;11.43;100.00
70781;BME280;59514;48.810;2.134;2023-05-08T07:19:07;100949.19;;;11.43;100.00
70781;BME280;59514;48.810;2.134;2023-05-08T07:21:33;100944.84;;;11.42;100.00
70781;BME280;59514;48.810;2.134;2023-05-08T07:23:58;100945.66;;;11.49;100.00
70781;BME280;59514;48.810;2.134;2023-05-08T07:26:24;100950.41;;;11.47;100.00
70781;BME280;59514;48.810;2.134;2023-05-08T07:28:49;100940.56;;;11.65;100.00
70781;BME280;59514;48.810;2.134;2023-05-08T07:31:18;100943.56;;;11.82;100.00
70781;BME280;59514;48.810;2.134;2023-05-08T07:33:44;100949.47;;;11.97;100.00
70781;BME280;59514;48.810;2.134;2023-05-08T07:36:10;100953.31;;;11.83;100.00
70781;BME280;59514;48.810;2.134;2023-05-08T07:38:36;100957.03;;;12.06;100.00
70781;BME280;59514;48.810;2.134;2023-05-08T07:41:01;100954.97;;;12.08;100.00
70781;BME280;59514;48.810;2.134;2023-05-08T07:43:26;100959.97;;;12.23;100.00
70781;BME280;59514;48.810;2.134;2023-05-08T07:45:52;100965.31;;;12.30;100.00
70781;BME280;59514;48.810;2.134;2023-05-08T07:48:17;100960.38;;;12.27;100.00
70781;BME280;59514;48.810;2.134;2023-05-08T07:50:43;100966.38;;;12.04;100.00
70781;BME280;59514;48.810;2.134;2023-05-08T07:53:09;100966.97;;;12.31;100.00
70781;BME280;59514;48.810;2.134;2023-05-08T07:55:35;100966.38;;;12.47;100.00
70781;BME280;59514;48.810;2.134;2023-05-08T07:58:00;100969.47;;;12.50;100.00
70781;BME280;59514;48.810;2.134;2023-05-08T08:00:26;100978.47;;;12.62;100.00
70781;BME280;59514;48.810;2.134;2023-05-08T08:02:52;100969.19;;;12.76;100.00
70781;BME280;59514;48.810;2.134;2023-05-08T08:05:17;100964.91;;;12.87;100.00
70781;BME280;59514;48.810;2.134;2023-05-08T08:07:43;100975.78;;;12.80;100.00
70781;BME280;59514;48.810;2.134;2023-05-08T08:10:08;100985.50;;;12.63;100.00
70781;BME280;59514;48.810;2.134;2023-05-08T08:12:33;100982.66;;;12.58;100.00
70781;BME280;59514;48.810;2.134;2023-05-08T08:14:59;100987.13;;;13.00;100.00
70781;BME280;59514;48.810;2.134;2023-05-08T08:17:24;100982.31;;;13.09;100.00
70781;BME280;59514;48.810;2.134;2023-05-08T08:19:49;100982.44;;;12.96;100.00
70781;BME280;59514;48.810;2.134;2023-05-08T08:22:15;100979.25;;;13.06;100.00
70781;BME280;59514;48.810;2.134;2023-05-08T08:24:41;100977.78;;;13.03;100.00
70781;BME280;59514;48.810;2.134;2023-05-08T08:27:06;100987.13;;;13.00;100.00
70781;BME280;59514;48.810;2.134;2023-05-08T08:29:32;100984.88;;;13.04;100.00
70781;BME280;59514;48.810;2.134;2023-05-08T08:31:57;100982.66;;;12.76;100.00
70781;BME280;59514;48.810;2.134;2023-05-08T08:34:23;100982.22;;;12.97;100.00
70781;BME280;59514;48.810;2.134;2023-05-08T08:36:48;100988.56;;;12.85;100.00
70781;BME280;59514;48.810;2.134;2023-05-08T08:39:14;100994.78;;;12.85;100.00
70781;BME280;59514;48.810;2.134;2023-05-08T08:41:39;100997.19;;;12.75;100.00
70781;BME280;59514;48.810;2.134;2023-05-08T08:44:05;100987.97;;;13.19;100.00
70781;BME280;59514;48.810;2.134;2023-05-08T08:46:31;100993.06;;;13.27;100.00
70781;BME280;59514;48.810;2.134;2023-05-08T08:49:03;100990.00;;;12.87;100.00
70781;BME280;59514;48.810;2.134;2023-05-08T08:51:38;100987.72;;;13.02;100.00
70781;BME280;59514;48.810;2.134;2023-05-08T08:54:09;100992.53;;;13.00;100.00
70781;BME280;59514;48.810;2.134;2023-05-08T08:56:36;100998.53;;;13.21;100.00
70781;BME280;59514;48.810;2.134;2023-05-08T08:59:04;100995.88;;;13.32;100.00
70781;BME280;59514;48.810;2.134;2023-05-08T09:01:33;100990.09;;;13.17;100.00
70781;BME280;59514;48.810;2.134;2023-05-08T09:04:00;101005.88;;;13.32;100.00
70781;BME280;59514;48.810;2.134;2023-05-08T09:06:26;100993.91;;;13.10;100.00
70781;BME280;59514;48.810;2.134;2023-05-08T09:08:54;100991.59;;;13.13;100.00
70781;BME280;59514;48.810;2.134;2023-05-08T09:11:21;101002.13;;;13.33;100.00
70781;BME280;59514;48.810;2.134;2023-05-08T09:13:46;100989.22;;;13.64;100.00
70781;BME280;59514;48.810;2.134;2023-05-08T09:16:12;100991.84;;;13.71;100.00
70781;BME280;59514;48.810;2.134;2023-05-08T09:18:37;100983.94;;;14.11;100.00
70781;BME280;59514;48.810;2.134;2023-05-08T09:21:05;100978.31;;;14.24;100.00
70781;BME280;59514;48.810;2.134;2023-05-08T09:23:30;100975.28;;;14.32;100.00
70781;BME280;59514;48.810;2.134;2023-05-08T09:25:56;100973.50;;;14.14;100.00
70781;BME280;59514;48.810;2.134;2023-05-08T09:28:23;100974.94;;;14.28;100.00
70781;BME280;59514;48.810;2.134;2023-05-08T09:30:53;100970.53;;;14.04;100.00
70781;BME280;59514;48.810;2.134;2023-05-08T09:33:20;100971.28;;;14.23;100.00
70781;BME280;59514;48.810;2.134;2023-05-08T09:35:46;100972.25;;;14.40;99.22
70781;BME280;59514;48.810;2.134;2023-05-08T09:38:38;100966.22;;;14.26;99.43
70781;BME280;59514;48.810;2.134;2023-05-08T09:41:07;100955.84;;;14.00;100.00
70781;BME280;59514;48.810;2.134;2023-05-08T09:43:33;100960.41;;;14.29;100.00
70781;BME280;59514;48.810;2.134;2023-05-08T09:46:18;100962.75;;;14.49;95.77
70781;BME280;59514;48.810;2.134;2023-05-08T09:48:48;100966.72;;;14.46;96.35
70781;BME280;59514;48.810;2.134;2023-05-08T09:51:13;100959.69;;;14.45;95.34
70781;BME280;59514;48.810;2.134;2023-05-08T09:53:39;100965.91;;;14.69;95.27
70781;BME280;59514;48.810;2.134;2023-05-08T09:56:04;100950.69;;;14.80;100.00
70781;BME280;59514;48.810;2.134;2023-05-08T09:58:40;100944.59;;;14.84;96.43
70781;BME280;59514;48.810;2.134;2023-05-08T10:01:07;100952.44;;;14.97;96.23
70781;BME280;59514;48.810;2.134;2023-05-08T10:03:46;100947.72;;;15.32;94.09
70781;BME280;59514;48.810;2.134;2023-05-08T10:06:12;100945.00;;;15.04;90.63
70781;BME280;59514;48.810;2.134;2023-05-08T10:08:41;100944.41;;;15.42;93.63
70781;BME280;59514;48.810;2.134;2023-05-08T10:11:17;100942.66;;;15.64;90.20
70781;BME280;59514;48.810;2.134;2023-05-08T10:13:44;100937.94;;;16.04;86.63
70781;BME280;59514;48.810;2.134;2023-05-08T10:16:19;100928.09;;;16.36;88.20
70781;BME280;59514;48.810;2.134;2023-05-08T10:18:46;100930.34;;;16.23;87.11
70781;BME280;59514;48.810;2.134;2023-05-08T10:21:14;100936.13;;;16.10;90.72
70781;BME280;59514;48.810;2.134;2023-05-08T10:23:41;100938.22;;;16.41;84.36
70781;BME280;59514;48.810;2.134;2023-05-08T10:26:11;100923.75;;;17.17;87.20
70781;BME280;59514;48.810;2.134;2023-05-08T10:28:57;100922.47;;;17.24;81.94
70781;BME280;59514;48.810;2.134;2023-05-08T10:31:43;100920.88;;;17.50;79.83
70781;BME280;59514;48.810;2.134;2023-05-08T10:34:13;100930.47;;;17.58;82.69
70781;BME280;59514;48.810;2.134;2023-05-08T10:36:41;100917.78;;;17.42;86.57
70781;BME280;59514;48.810;2.134;2023-05-08T10:39:07;100926.94;;;17.57;83.26
70781;BME280;59514;48.810;2.134;2023-05-08T10:41:32;100911.97;;;17.86;82.98
70781;BME280;59514;48.810;2.134;2023-05-08T10:44:00;100913.53;;;18.14;80.67
70781;BME280;59514;48.810;2.134;2023-05-08T10:52:33;100917.00;;;17.99;77.18
70781;BME280;59514;48.810;2.134;2023-05-08T10:57:29;100905.91;;;18.48;77.68
70781;BME280;59514;48.810;2.134;2023-05-08T10:59:54;100899.00;;;17.93;79.01
70781;BME280;59514;48.810;2.134;2023-05-08T11:02:27;100896.22;;;17.88;76.53
70781;BME280;59514;48.810;2.134;2023-05-08T11:05:16;100886.16;;;18.26;78.96
70781;BME280;59514;48.810;2.134;2023-05-08T11:07:56;100884.81;;;18.28;77.62
70781;BME280;59514;48.810;2.134;2023-05-08T11:10:28;100882.75;;;18.03;77.86
70781;BME280;59514;48.810;2.134;2023-05-08T11:12:55;100876.38;;;18.25;76.94
70781;BME280;59514;48.810;2.134;2023-05-08T11:15:37;100874.19;;;18.22;76.88
70781;BME280;59514;48.810;2.134;2023-05-08T11:18:09;100871.78;;;18.30;75.28
70781;BME280;59514;48.810;2.134;2023-05-08T11:20:53;100877.56;;;17.97;77.80
70781;BME280;59514;48.810;2.134;2023-05-08T11:23:22;100875.72;;;18.07;79.77
70781;BME280;59514;48.810;2.134;2023-05-08T11:25:58;100871.22;;;18.28;77.45
70781;BME280;59514;48.810;2.134;2023-05-08T11:28:24;100863.72;;;17.98;76.03
70781;BME280;59514;48.810;2.134;2023-05-08T11:30:52;100860.13;;;17.93;78.00
70781;BME280;59514;48.810;2.134;2023-05-08T11:33:19;100856.63;;;17.61;80.30
70781;BME280;59514;48.810;2.134;2023-05-08T11:41:05;100849.19;;;17.83;77.23
70781;BME280;59514;48.810;2.134;2023-05-08T11:43:42;100842.69;;;17.52;76.20
70781;BME280;59514;48.810;2.134;2023-05-08T11:46:15;100838.72;;;17.33;77.10
70781;BME280;59514;48.810;2.134;2023-05-08T11:48:41;100830.38;;;17.71;81.66
70781;BME280;59514;48.810;2.134;2023-05-08T11:51:07;100834.06;;;17.60;78.35
70781;BME280;59514;48.810;2.134;2023-05-08T11:53:34;100827.38;;;17.41;78.07
70781;BME280;59514;48.810;2.134;2023-05-08T11:56:00;100825.66;;;17.62;79.59
70781;BME280;59514;48.810;2.134;2023-05-08T11:58:26;100820.13;;;18.25;76.94
70781;BME280;59514;48.810;2.134;2023-05-08T12:00:51;100811.13;;;18.86;73.32
70781;BME280;59514;48.810;2.134;2023-05-08T12:03:18;100813.53;;;18.68;72.06
70781;BME280;59514;48.810;2.134;2023-05-08T12:05:45;100805.38;;;18.73;72.83
70781;BME280;59514;48.810;2.134;2023-05-08T12:08:12;100808.19;;;19.28;72.79
70781;BME280;59514;48.810;2.134;2023-05-08T12:10:52;100805.25;;;19.60;68.59
70781;BME280;59514;48.810;2.134;2023-05-08T12:13:23;100798.94;;;19.90;65.87
70781;BME280;59514;48.810;2.134;2023-05-08T12:15:59;100800.53;;;19.91;65.69
70781;BME280;59514;48.810;2.134;2023-05-08T12:18:26;100795.59;;;20.18;76.88
70781;BME280;59514;48.810;2.134;2023-05-08T12:20:54;100790.69;;;20.20;77.37
70781;BME280;59514;48.810;2.134;2023-05-08T12:23:21;100795.41;;;19.74;69.91
70781;BME280;59514;48.810;2.134;2023-05-08T12:25:46;100792.66;;;19.89;73.84
70781;BME280;59514;48.810;2.134;2023-05-08T12:28:12;100792.31;;;20.11;70.86
70781;BME280;59514;48.810;2.134;2023-05-08T12:30:37;100794.22;;;20.20;70.92
70781;BME280;59514;48.810;2.134;2023-05-08T12:33:03;100796.72;;;20.02;68.63
70781;BME280;59514;48.810;2.134;2023-05-08T12:35:30;100789.13;;;19.13;70.74
70781;BME280;59514;48.810;2.134;2023-05-08T12:38:02;100791.75;;;18.68;70.48
70781;BME280;59514;48.810;2.134;2023-05-08T12:40:34;100795.41;;;19.09;68.90
70781;BME280;59514;48.810;2.134;2023-05-08T12:43:01;100787.78;;;19.21;71.83
70781;BME280;59514;48.810;2.134;2023-05-08T12:45:28;100789.66;;;19.10;76.98
70781;BME280;59514;48.810;2.134;2023-05-08T12:48:02;100783.63;;;18.78;72.10
70781;BME280;59514;48.810;2.134;2023-05-08T12:50:27;100778.22;;;18.98;75.99
70781;BME280;59514;48.810;2.134;2023-05-08T12:53:03;100782.03;;;18.87;70.96
70781;BME280;59514;48.810;2.134;2023-05-08T12:55:30;100785.72;;;18.56;70.13
70781;BME280;59514;48.810;2.134;2023-05-08T12:57:59;100792.50;;;18.43;72.52
70781;BME280;59514;48.810;2.134;2023-05-08T13:00:25;100794.97;;;18.50;71.10
70781;BME280;59514;48.810;2.134;2023-05-08T13:02:57;100791.56;;;18.28;71.88
70781;BME280;59514;48.810;2.134;2023-05-08T13:05:23;100797.44;;;18.56;71.87
70781;BME280;59514;48.810;2.134;2023-05-08T13:07:49;100803.94;;;18.55;70.49
70781;BME280;59514;48.810;2.134;2023-05-08T13:10:15;100806.50;;;18.87;73.19
70781;BME280;59514;48.810;2.134;2023-05-08T13:12:43;100808.09;;;18.78;72.20
70781;BME280;59514;48.810;2.134;2023-05-08T13:15:09;100811.13;;;18.91;73.40
70781;BME280;59514;48.810;2.134;2023-05-08T13:17:34;100816.84;;;18.95;70.30
70781;BME280;59514;48.810;2.134;2023-05-08T13:19:59;100811.38;;;18.80;72.43